sensor_id;sensor_type;location;lat;lon;timestamp;pressure;altitude;pressure_sealevel;temperature;humidity
44441;BME280;30146;52.268;20.944;2023-04-04T00:01:25;101243.38;;;1.70;49.35
44441;BME280;30146;52.268;20.944;2023-04-04T00:03:56;101241.85;;;1.66;49.59
44441;BME280;30146;52.268;20.944;2023-04-04T00:06:27;101243.55;;;1.62;49.66
44441;BME280;30146;52.268;20.944;2023-04-04T00:08:59;101242.23;;;1.59;49.68
44441;BME280;30146;52.268;20.944;2023-04-04T00:11:30;101238.52;;;1.55;49.77
44441;BME280;30146;52.268;20.944;2023-04-04T00:14:01;101236.33;;;1.50;49.73
44441;BME280;30146;52.268;20.944;2023-04-04T00:16:32;101234.67;;;1.47;49.84
44441;BME280;30146;52.268;20.944;2023-04-04T00:19:03;101232.44;;;1.43;50.02
44441;BME280;30146;52.268;20.944;2023-04-04T00:21:33;101232.02;;;1.37;50.10
44441;BME280;30146;52.268;20.944;2023-04-04T00:24:05;101228.63;;;1.32;50.14
44441;BME280;30146;52.268;20.944;2023-04-04T00:26:35;101222.70;;;1.27;50.40
44441;BME280;30146;52.268;20.944;2023-04-04T00:29:06;101220.84;;;1.23;50.48
44441;BME280;30146;52.268;20.944;2023-04-04T00:31:37;101223.67;;;1.18;50.57
44441;BME280;30146;52.268;20.944;2023-04-04T00:34:08;101222.16;;;1.14;50.74
44441;BME280;30146;52.268;20.944;2023-04-04T00:36:39;101221.98;;;1.10;50.68
44441;BME280;30146;52.268;20.944;2023-04-04T00:39:10;101221.13;;;1.06;50.88
44441;BME280;30146;52.268;20.944;2023-04-04T00:41:41;101220.65;;;1.03;50.94
44441;BME280;30146;52.268;20.944;2023-04-04T00:44:12;101217.09;;;0.98;51.07
44441;BME280;30146;52.268;20.944;2023-04-04T00:46:42;101221.90;;;0.96;51.21
44441;BME280;30146;52.268;20.944;2023-04-04T00:49:14;101219.83;;;0.95;51.39
44441;BME280;30146;52.268;20.944;2023-04-04T00:51:45;101217.14;;;0.91;51.54
44441;BME280;30146;52.268;20.944;2023-04-04T00:54:15;101216.05;;;0.86;51.52
44441;BME280;30146;52.268;20.944;2023-04-04T00:56:47;101210.38;;;0.79;51.68
44441;BME280;30146;52.268;20.944;2023-04-04T00:59:24;101205.26;;;0.74;51.58
44441;BME280;30146;52.268;20.944;2023-04-04T01:01:56;101207.76;;;0.70;51.79
44441;BME280;30146;52.268;20.944;2023-04-04T01:04:28;101202.52;;;0.65;51.84
44441;BME280;30146;52.268;20.944;2023-04-04T01:07:00;101198.48;;;0.62;52.04
44441;BME280;30146;52.268;20.944;2023-04-04T01:09:33;101192.25;;;0.57;52.05
44441;BME280;30146;52.268;20.944;2023-04-04T01:12:04;101185.70;;;0.54;52.25
44441;BME280;30146;52.268;20.944;2023-04-04T01:14:36;101184.77;;;0.52;52.35
44441;BME280;30146;52.268;20.944;2023-04-04T01:17:07;101183.21;;;0.51;52.48
44441;BME280;30146;52.268;20.944;2023-04-04T01:19:45;101181.00;;;0.50;52.54
44441;BME280;30146;52.268;20.944;2023-04-04T01:22:21;101175.39;;;0.49;52.75
44441;BME280;30146;52.268;20.944;2023-04-04T01:24:55;101172.26;;;0.47;52.78
44441;BME280;30146;52.268;20.944;2023-04-04T01:27:28;101171.30;;;0.44;52.77
44441;BME280;30146;52.268;20.944;2023-04-04T01:30:09;101169.64;;;0.41;52.91
44441;BME280;30146;52.268;20.944;2023-04-04T01:32:44;101171.42;;;0.39;53.03
44441;BME280;30146;52.268;20.944;2023-04-04T01:35:27;101167.99;;;0.38;53.00
44441;BME280;30146;52.268;20.944;2023-04-04T01:38:11;101170.16;;;0.37;53.16
44441;BME280;30146;52.268;20.944;2023-04-04T01:40:48;101169.59;;;0.36;53.05
44441;BME280;30146;52.268;20.944;2023-04-04T01:43:21;101166.45;;;0.33;53.20
44441;BME280;30146;52.268;20.944;2023-04-04T01:45:54;101166.21;;;0.32;53.24
44441;BME280;30146;52.268;20.944;2023-04-04T01:48:26;101163.27;;;0.30;53.35
44441;BME280;30146;52.268;20.944;2023-04-04T01:51:01;101164.52;;;0.28;53.49
44441;BME280;30146;52.268;20.944;2023-04-04T01:53:34;101165.45;;;0.26;53.54
44441;BME280;30146;52.268;20.944;2023-04-04T01:56:06;101166.27;;;0.26;53.59
44441;BME280;30146;52.268;20.944;2023-04-04T01:58:38;101163.70;;;0.25;53.53
44441;BME280;30146;52.268;20.944;2023-04-04T02:01:09;101161.13;;;0.24;53.69
44441;BME280;30146;52.268;20.944;2023-04-04T02:03:41;101163.47;;;0.24;53.69
44441;BME280;30146;52.268;20.944;2023-04-04T02:06:12;101161.05;;;0.22;53.85
44441;BME280;30146;52.268;20.944;2023-04-04T02:08:43;101161.09;;;0.19;53.88
44441;BME280;30146;52.268;20.944;2023-04-04T02:11:14;101165.39;;;0.17;53.95
44441;BME280;30146;52.268;20.944;2023-04-04T02:13:45;101163.98;;;0.16;53.96
44441;BME280;30146;52.268;20.944;2023-04-04T02:16:17;101166.44;;;0.15;54.31
44441;BME280;30146;52.268;20.944;2023-04-04T02:18:48;101167.23;;;0.13;54.22
44441;BME280;30146;52.268;20.944;2023-04-04T02:21:18;101169.08;;;0.14;54.35
44441;BME280;30146;52.268;20.944;2023-04-04T02:23:49;101171.41;;;0.13;54.42
44441;BME280;30146;52.268;20.944;2023-04-04T02:26:20;101170.05;;;0.12;54.38
44441;BME280;30146;52.268;20.944;2023-04-04T02:28:51;101168.56;;;0.10;54.49
44441;BME280;30146;52.268;20.944;2023-04-04T02:31:23;101170.83;;;0.08;54.44
44441;BME280;30146;52.268;20.944;2023-04-04T02:33:55;101168.17;;;0.05;54.30
44441;BME280;30146;52.268;20.944;2023-04-04T02:36:26;101170.52;;;0.05;54.67
44441;BME280;30146;52.268;20.944;2023-04-04T02:38:57;101174.52;;;0.04;54.66
44441;BME280;30146;52.268;20.944;2023-04-04T02:41:28;101170.21;;;0.02;54.79
44441;BME280;30146;52.268;20.944;2023-04-04T02:43:59;101168.45;;;-0.00;54.70
44441;BME280;30146;52.268;20.944;2023-04-04T02:46:30;101167.90;;;-0.01;54.81
44441;BME280;30146;52.268;20.944;2023-04-04T02:49:04;101168.56;;;-0.02;54.88
44441;BME280;30146;52.268;20.944;2023-04-04T02:51:35;101171.35;;;-0.03;54.97
44441;BME280;30146;52.268;20.944;2023-04-04T02:54:06;101171.77;;;-0.05;55.07
44441;BME280;30146;52.268;20.944;2023-04-04T02:56:40;101170.52;;;-0.06;55.03
44441;BME280;30146;52.268;20.944;2023-04-04T02:59:10;101175.20;;;-0.07;55.26
44441;BME280;30146;52.268;20.944;2023-04-04T03:01:41;101174.02;;;-0.07;55.15
44441;BME280;30146;52.268;20.944;2023-04-04T03:04:12;101178.42;;;-0.09;55.15
44441;BME280;30146;52.268;20.944;2023-04-04T03:06:44;101179.20;;;-0.11;55.38
44441;BME280;30146;52.268;20.944;2023-04-04T03:09:17;101183.52;;;-0.12;55.42
44441;BME280;30146;52.268;20.944;2023-04-04T03:11:48;101182.30;;;-0.13;55.26
44441;BME280;30146;52.268;20.944;2023-04-04T03:14:20;101180.23;;;-0.14;55.39
44441;BME280;30146;52.268;20.944;2023-04-04T03:16:51;101183.51;;;-0.16;55.76
44441;BME280;30146;52.268;20.944;2023-04-04T03:19:22;101180.52;;;-0.18;55.54
44441;BME280;30146;52.268;20.944;2023-04-04T03:21:54;101181.30;;;-0.20;55.61
44441;BME280;30146;52.268;20.944;2023-04-04T03:24:24;101181.91;;;-0.22;55.67
44441;BME280;30146;52.268;20.944;2023-04-04T03:26:56;101179.64;;;-0.23;55.66
44441;BME280;30146;52.268;20.944;2023-04-04T03:29:29;101175.45;;;-0.23;55.64
44441;BME280;30146;52.268;20.944;2023-04-04T03:32:01;101175.27;;;-0.23;55.74
44441;BME280;30146;52.268;20.944;2023-04-04T03:34:32;101168.34;;;-0.24;55.69
44441;BME280;30146;52.268;20.944;2023-04-04T03:37:03;101167.36;;;-0.24;55.91
44441;BME280;30146;52.268;20.944;2023-04-04T03:39:34;101169.41;;;-0.22;56.20
44441;BME280;30146;52.268;20.944;2023-04-04T03:42:05;101171.02;;;-0.21;56.29
44441;BME280;30146;52.268;20.944;2023-04-04T03:44:38;101170.52;;;-0.21;56.16
44441;BME280;30146;52.268;20.944;2023-04-04T03:47:10;101171.76;;;-0.23;55.92
44441;BME280;30146;52.268;20.944;2023-04-04T03:49:40;101171.65;;;-0.25;55.93
44441;BME280;30146;52.268;20.944;2023-04-04T03:52:13;101166.87;;;-0.27;55.98
44441;BME280;30146;52.268;20.944;2023-04-04T03:54:44;101163.64;;;-0.27;56.18
44441;BME280;30146;52.268;20.944;2023-04-04T03:57:15;101167.52;;;-0.27;56.29
44441;BME280;30146;52.268;20.944;2023-04-04T03:59:46;101172.11;;;-0.26;56.28
44441;BME280;30146;52.268;20.944;2023-04-04T04:02:16;101171.16;;;-0.25;56.29
44441;BME280;30146;52.268;20.944;2023-04-04T04:04:47;101169.39;;;-0.23;56.51
44441;BME280;30146;52.268;20.944;2023-04-04T04:07:18;101170.61;;;-0.22;56.54
44441;BME280;30146;52.268;20.944;2023-04-04T04:09:49;101171.23;;;-0.20;56.66
44441;BME280;30146;52.268;20.944;2023-04-04T04:12:20;101173.66;;;-0.18;56.48
44441;BME280;30146;52.268;20.944;2023-04-04T04:14:52;101178.46;;;-0.16;56.46
44441;BME280;30146;52.268;20.944;2023-04-04T04:17:24;101176.04;;;-0.14;56.54
44441;BME280;30146;52.268;20.944;2023-04-04T04:19:55;101171.59;;;-0.12;56.54
44441;BME280;30146;52.268;20.944;2023-04-04T04:22:26;101172.23;;;-0.09;56.61
44441;BME280;30146;52.268;20.944;2023-04-04T04:24:57;101175.10;;;-0.05;56.56
44441;BME280;30146;52.268;20.944;2023-04-04T04:27:28;101172.55;;;-0.02;56.57
44441;BME280;30146;52.268;20.944;2023-04-04T04:29:59;101173.41;;;0.02;56.50
44441;BME280;30146;52.268;20.944;2023-04-04T04:32:35;101176.38;;;0.08;56.39
44441;BME280;30146;52.268;20.944;2023-04-04T04:35:08;101171.50;;;0.15;56.45
44441;BME280;30146;52.268;20.944;2023-04-04T04:37:39;101167.92;;;0.25;56.72
44441;BME280;30146;52.268;20.944;2023-04-04T04:40:11;101166.34;;;0.42;56.67
44441;BME280;30146;52.268;20.944;2023-04-04T04:42:51;101165.59;;;0.59;56.54
44441;BME280;30146;52.268;20.944;2023-04-04T04:45:23;101162.07;;;0.87;56.78
44441;BME280;30146;52.268;20.944;2023-04-04T04:48:05;101160.97;;;1.80;57.75
44441;BME280;30146;52.268;20.944;2023-04-04T04:54:36;101150.99;;;4.50;57.42
44441;BME280;30146;52.268;20.944;2023-04-04T04:57:08;101147.64;;;5.49;56.16
44441;BME280;30146;52.268;20.944;2023-04-04T04:59:41;101144.25;;;6.40;55.25
44441;BME280;30146;52.268;20.944;2023-04-04T05:02:13;101141.39;;;7.33;54.15
44441;BME280;30146;52.268;20.944;2023-04-04T05:04:45;101136.60;;;8.23;53.24
44441;BME280;30146;52.268;20.944;2023-04-04T05:07:17;101133.02;;;9.15;52.12
44441;BME280;30146;52.268;20.944;2023-04-04T05:09:48;101129.03;;;10.00;50.78
44441;BME280;30146;52.268;20.944;2023-04-04T05:12:22;101132.46;;;10.85;49.75
44441;BME280;30146;52.268;20.944;2023-04-04T05:14:54;101125.14;;;11.61;48.71
44441;BME280;30146;52.268;20.944;2023-04-04T05:17:26;101126.94;;;12.17;47.29
44441;BME280;30146;52.268;20.944;2023-04-04T05:20:00;101126.55;;;12.65;46.21
44441;BME280;30146;52.268;20.944;2023-04-04T05:22:31;101126.52;;;13.24;45.23
44441;BME280;30146;52.268;20.944;2023-04-04T05:25:02;101118.75;;;13.86;44.50
44441;BME280;30146;52.268;20.944;2023-04-04T05:27:33;101115.59;;;14.50;43.94
44441;BME280;30146;52.268;20.944;2023-04-04T05:30:05;101114.77;;;15.18;43.27
44441;BME280;30146;52.268;20.944;2023-04-04T05:32:44;101117.77;;;15.85;42.55
44441;BME280;30146;52.268;20.944;2023-04-04T05:35:22;101121.51;;;16.48;41.60
44441;BME280;30146;52.268;20.944;2023-04-04T05:37:55;101121.25;;;17.07;40.77
44441;BME280;30146;52.268;20.944;2023-04-04T05:40:26;101120.16;;;17.64;40.15
44441;BME280;30146;52.268;20.944;2023-04-04T05:43:05;101123.09;;;18.22;39.50
44441;BME280;30146;52.268;20.944;2023-04-04T05:49:08;101123.66;;;19.12;37.32
44441;BME280;30146;52.268;20.944;2023-04-04T05:51:42;101125.30;;;19.41;36.61
44441;BME280;30146;52.268;20.944;2023-04-04T05:54:17;101122.16;;;19.78;36.32
44441;BME280;30146;52.268;20.944;2023-04-04T05:56:49;101119.00;;;20.13;35.77
44441;BME280;30146;52.268;20.944;2023-04-04T05:59:38;101121.17;;;20.48;35.29
44441;BME280;30146;52.268;20.944;2023-04-04T06:02:10;101120.44;;;20.85;34.79
44441;BME280;30146;52.268;20.944;2023-04-04T06:04:45;101115.55;;;21.24;34.35
44441;BME280;30146;52.268;20.944;2023-04-04T06:07:21;101111.30;;;21.68;34.11
44441;BME280;30146;52.268;20.944;2023-04-04T06:09:52;101112.45;;;22.08;33.67
44441;BME280;30146;52.268;20.944;2023-04-04T06:12:29;101110.38;;;22.43;32.90
44441;BME280;30146;52.268;20.944;2023-04-04T06:18:58;101112.75;;;23.13;31.87
44441;BME280;30146;52.268;20.944;2023-04-04T06:26:02;101105.08;;;23.75;30.80
44441;BME280;30146;52.268;20.944;2023-04-04T06:28:34;101104.44;;;23.88;30.32
44441;BME280;30146;52.268;20.944;2023-04-04T06:31:07;101103.70;;;24.12;30.36
44441;BME280;30146;52.268;20.944;2023-04-04T06:33:38;101101.76;;;24.38;29.92
44441;BME280;30146;52.268;20.944;2023-04-04T06:36:09;101101.57;;;24.57;29.51
44441;BME280;30146;52.268;20.944;2023-04-04T06:38:39;101101.88;;;24.80;29.36
44441;BME280;30146;52.268;20.944;2023-04-04T06:41:17;101100.61;;;24.99;29.09
44441;BME280;30146;52.268;20.944;2023-04-04T06:43:50;101099.09;;;25.12;28.74
44441;BME280;30146;52.268;20.944;2023-04-04T06:46:21;101094.25;;;25.18;28.17
44441;BME280;30146;52.268;20.944;2023-04-04T06:48:53;101089.94;;;25.26;27.88
44441;BME280;30146;52.268;20.944;2023-04-04T06:51:24;101093.11;;;24.77;27.14
44441;BME280;30146;52.268;20.944;2023-04-04T06:53:55;101091.92;;;24.73;27.29
44441;BME280;30146;52.268;20.944;2023-04-04T06:56:26;101089.29;;;24.76;27.33
44441;BME280;30146;52.268;20.944;2023-04-04T06:58:59;101087.08;;;24.75;27.05
44441;BME280;30146;52.268;20.944;2023-04-04T07:01:33;101091.45;;;24.57;26.69
44441;BME280;30146;52.268;20.944;2023-04-04T07:04:03;101088.20;;;24.14;26.39
44441;BME280;30146;52.268;20.944;2023-04-04T07:06:34;101086.79;;;23.81;26.22
44441;BME280;30146;52.268;20.944;2023-04-04T07:09:05;101084.34;;;23.88;26.38
44441;BME280;30146;52.268;20.944;2023-04-04T07:11:50;101083.43;;;24.21;26.79
44441;BME280;30146;52.268;20.944;2023-04-04T07:14:21;101080.08;;;24.50;26.57
44441;BME280;30146;52.268;20.944;2023-04-04T07:16:54;101083.23;;;24.76;26.41
44441;BME280;30146;52.268;20.944;2023-04-04T07:19:25;101081.10;;;24.94;26.10
44441;BME280;30146;52.268;20.944;2023-04-04T07:21:57;101081.91;;;24.95;25.66
44441;BME280;30146;52.268;20.944;2023-04-04T07:24:28;101083.48;;;24.65;25.05
44441;BME280;30146;52.268;20.944;2023-04-04T07:26:58;101085.60;;;24.42;25.12
44441;BME280;30146;52.268;20.944;2023-04-04T07:29:29;101085.14;;;24.47;25.37
44441;BME280;30146;52.268;20.944;2023-04-04T07:32:00;101086.40;;;24.44;25.27
44441;BME280;30146;52.268;20.944;2023-04-04T07:34:31;101086.42;;;23.85;24.88
44441;BME280;30146;52.268;20.944;2023-04-04T07:37:02;101084.64;;;23.89;25.37
44441;BME280;30146;52.268;20.944;2023-04-04T07:39:32;101076.29;;;24.24;25.70
44441;BME280;30146;52.268;20.944;2023-04-04T07:42:03;101077.48;;;24.63;25.54
44441;BME280;30146;52.268;20.944;2023-04-04T07:44:34;101071.04;;;24.46;24.92
44441;BME280;30146;52.268;20.944;2023-04-04T07:47:05;101070.29;;;24.13;24.67
44441;BME280;30146;52.268;20.944;2023-04-04T07:49:38;101074.14;;;24.25;24.80
44441;BME280;30146;52.268;20.944;2023-04-04T07:52:10;101069.13;;;24.43;24.92
44441;BME280;30146;52.268;20.944;2023-04-04T07:54:40;101072.05;;;23.96;24.22
44441;BME280;30146;52.268;20.944;2023-04-04T07:57:11;101068.85;;;23.54;24.18
44441;BME280;30146;52.268;20.944;2023-04-04T07:59:42;101066.21;;;23.27;24.38
44441;BME280;30146;52.268;20.944;2023-04-04T08:02:13;101062.42;;;22.80;24.30
44441;BME280;30146;52.268;20.944;2023-04-04T08:04:44;101062.52;;;21.92;24.01
44441;BME280;30146;52.268;20.944;2023-04-04T08:07:15;101063.61;;;20.93;24.16
44441;BME280;30146;52.268;20.944;2023-04-04T08:09:46;101055.58;;;20.10;24.49
44441;BME280;30146;52.268;20.944;2023-04-04T08:12:17;101060.00;;;19.89;25.31
44441;BME280;30146;52.268;20.944;2023-04-04T08:14:47;101056.73;;;19.19;25.44
44441;BME280;30146;52.268;20.944;2023-04-04T08:17:19;101057.98;;;18.35;25.51
44441;BME280;30146;52.268;20.944;2023-04-04T08:19:51;101059.83;;;17.44;25.76
44441;BME280;30146;52.268;20.944;2023-04-04T08:22:21;101068.44;;;16.68;26.37
44441;BME280;30146;52.268;20.944;2023-04-04T08:24:52;101064.04;;;16.41;27.42
44441;BME280;30146;52.268;20.944;2023-04-04T08:27:23;101062.27;;;16.10;27.73
44441;BME280;30146;52.268;20.944;2023-04-04T08:29:53;101058.98;;;15.77;28.37
44441;BME280;30146;52.268;20.944;2023-04-04T08:32:25;101055.92;;;15.65;28.80
44441;BME280;30146;52.268;20.944;2023-04-04T08:34:55;101051.06;;;15.75;29.31
44441;BME280;30146;52.268;20.944;2023-04-04T08:37:26;101053.55;;;15.81;29.40
44441;BME280;30146;52.268;20.944;2023-04-04T08:39:58;101050.94;;;15.63;29.05
44441;BME280;30146;52.268;20.944;2023-04-04T08:42:31;101050.95;;;15.25;28.64
44441;BME280;30146;52.268;20.944;2023-04-04T08:47:37;101055.35;;;14.14;28.70
44441;BME280;30146;52.268;20.944;2023-04-04T08:50:09;101053.71;;;13.62;28.69
44441;BME280;30146;52.268;20.944;2023-04-04T08:52:40;101060.52;;;13.09;28.80
44441;BME280;30146;52.268;20.944;2023-04-04T08:55:13;101058.33;;;12.59;29.07
44441;BME280;30146;52.268;20.944;2023-04-04T08:57:44;101057.52;;;12.16;29.36
44441;BME280;30146;52.268;20.944;2023-04-04T09:00:16;101054.70;;;11.88;29.81
44441;BME280;30146;52.268;20.944;2023-04-04T09:02:57;101053.56;;;11.66;30.35
44441;BME280;30146;52.268;20.944;2023-04-04T09:05:31;101054.42;;;11.60;30.73
44441;BME280;30146;52.268;20.944;2023-04-04T09:08:03;101051.20;;;11.50;30.62
44441;BME280;30146;52.268;20.944;2023-04-04T09:10:34;101051.05;;;11.33;30.48
44441;BME280;30146;52.268;20.944;2023-04-04T09:13:06;101047.98;;;11.11;30.50
44441;BME280;30146;52.268;20.944;2023-04-04T09:15:47;101050.91;;;10.93;30.61
44441;BME280;30146;52.268;20.944;2023-04-04T09:18:18;101049.68;;;10.69;30.64
44441;BME280;30146;52.268;20.944;2023-04-04T09:20:49;101053.73;;;10.46;30.94
44441;BME280;30146;52.268;20.944;2023-04-04T09:23:21;101052.11;;;10.24;30.74
44441;BME280;30146;52.268;20.944;2023-04-04T09:25:53;101048.96;;;10.07;31.16
44441;BME280;30146;52.268;20.944;2023-04-04T09:28:33;101049.43;;;9.94;31.18
44441;BME280;30146;52.268;20.944;2023-04-04T09:31:08;101047.66;;;9.80;31.40
44441;BME280;30146;52.268;20.944;2023-04-04T09:33:38;101051.01;;;9.66;31.55
44441;BME280;30146;52.268;20.944;2023-04-04T09:36:11;101053.61;;;9.49;31.58
44441;BME280;30146;52.268;20.944;2023-04-04T09:38:44;101052.66;;;9.59;32.03
44441;BME280;30146;52.268;20.944;2023-04-04T09:41:19;101046.84;;;9.86;32.24
44441;BME280;30146;52.268;20.944;2023-04-04T09:43:51;101048.65;;;10.14;32.52
44441;BME280;30146;52.268;20.944;2023-04-04T09:46:22;101049.38;;;10.24;32.10
44441;BME280;30146;52.268;20.944;2023-04-04T09:48:54;101046.29;;;10.19;31.55
44441;BME280;30146;52.268;20.944;2023-04-04T09:51:24;101049.14;;;10.04;31.48
44441;BME280;30146;52.268;20.944;2023-04-04T09:54:03;101044.45;;;9.90;31.40
44441;BME280;30146;52.268;20.944;2023-04-04T09:56:41;101042.73;;;9.85;31.54
44441;BME280;30146;52.268;20.944;2023-04-04T09:59:14;101043.69;;;10.09;31.92
44441;BME280;30146;52.268;20.944;2023-04-04T10:01:46;101042.79;;;10.43;32.06
44441;BME280;30146;52.268;20.944;2023-04-04T10:04:20;101040.95;;;10.57;32.06
44441;BME280;30146;52.268;20.944;2023-04-04T10:06:53;101041.80;;;10.58;31.49
44441;BME280;30146;52.268;20.944;2023-04-04T10:09:26;101044.34;;;10.45;31.16
44441;BME280;30146;52.268;20.944;2023-04-04T10:12:09;101046.99;;;10.25;30.90
44441;BME280;30146;52.268;20.944;2023-04-04T10:14:40;101042.27;;;10.00;30.84
44441;BME280;30146;52.268;20.944;2023-04-04T10:17:14;101042.04;;;9.84;31.09
44441;BME280;30146;52.268;20.944;2023-04-04T10:19:45;101047.03;;;9.90;31.59
44441;BME280;30146;52.268;20.944;2023-04-04T10:22:16;101046.02;;;9.95;31.86
44441;BME280;30146;52.268;20.944;2023-04-04T10:24:48;101044.83;;;9.96;31.86
44441;BME280;30146;52.268;20.944;2023-04-04T10:27:19;101039.33;;;9.89;31.69
44441;BME280;30146;52.268;20.944;2023-04-04T10:29:50;101042.34;;;9.74;31.45
44441;BME280;30146;52.268;20.944;2023-04-04T10:32:29;101045.28;;;9.52;31.28
44441;BME280;30146;52.268;20.944;2023-04-04T10:35:06;101049.42;;;9.32;31.61
44441;BME280;30146;52.268;20.944;2023-04-04T10:37:43;101049.29;;;9.15;31.76
44441;BME280;30146;52.268;20.944;2023-04-04T10:40:16;101050.94;;;9.07;32.15
44441;BME280;30146;52.268;20.944;2023-04-04T10:42:50;101045.63;;;9.03;32.39
44441;BME280;30146;52.268;20.944;2023-04-04T10:45:21;101041.19;;;9.04;32.52
44441;BME280;30146;52.268;20.944;2023-04-04T10:47:53;101038.11;;;9.04;32.44
44441;BME280;30146;52.268;20.944;2023-04-04T10:50:26;101036.17;;;8.96;32.40
44441;BME280;30146;52.268;20.944;2023-04-04T10:52:57;101036.41;;;8.84;32.24
44441;BME280;30146;52.268;20.944;2023-04-04T10:55:30;101039.06;;;8.75;32.38
44441;BME280;30146;52.268;20.944;2023-04-04T10:58:02;101037.30;;;8.69;32.54
44441;BME280;30146;52.268;20.944;2023-04-04T11:00:34;101034.34;;;8.63;32.63
44441;BME280;30146;52.268;20.944;2023-04-04T11:03:18;101034.45;;;8.56;32.79
44441;BME280;30146;52.268;20.944;2023-04-04T11:05:49;101036.39;;;8.46;32.83
44441;BME280;30146;52.268;20.944;2023-04-04T11:08:25;101036.14;;;8.40;32.74
44441;BME280;30146;52.268;20.944;2023-04-04T11:10:57;101034.87;;;8.34;32.85
44441;BME280;30146;52.268;20.944;2023-04-04T11:13:35;101028.22;;;8.33;33.18
44441;BME280;30146;52.268;20.944;2023-04-04T11:16:11;101026.21;;;8.36;33.35
44441;BME280;30146;52.268;20.944;2023-04-04T11:18:47;101033.03;;;8.37;33.34
44441;BME280;30146;52.268;20.944;2023-04-04T11:21:19;101032.30;;;8.33;33.10
44441;BME280;30146;52.268;20.944;2023-04-04T11:24:15;101030.35;;;8.25;32.92
44441;BME280;30146;52.268;20.944;2023-04-04T11:26:47;101031.21;;;8.12;32.98
44441;BME280;30146;52.268;20.944;2023-04-04T11:32:34;101031.52;;;7.68;33.71
44441;BME280;30146;52.268;20.944;2023-04-04T11:35:18;101033.80;;;7.35;34.26
44441;BME280;30146;52.268;20.944;2023-04-04T11:38:00;101037.92;;;7.16;34.45
44441;BME280;30146;52.268;20.944;2023-04-04T11:40:40;101039.14;;;6.97;34.71
44441;BME280;30146;52.268;20.944;2023-04-04T11:43:12;101039.08;;;6.83;35.11
44441;BME280;30146;52.268;20.944;2023-04-04T11:45:46;101031.13;;;6.76;35.39
44441;BME280;30146;52.268;20.944;2023-04-04T11:48:19;101030.05;;;6.72;35.50
44441;BME280;30146;52.268;20.944;2023-04-04T11:50:53;101028.86;;;6.71;35.54
44441;BME280;30146;52.268;20.944;2023-04-04T11:53:24;101027.41;;;6.77;35.74
44441;BME280;30146;52.268;20.944;2023-04-04T11:55:55;101024.00;;;6.86;36.08
44441;BME280;30146;52.268;20.944;2023-04-04T11:58:26;101028.71;;;6.94;36.30
44441;BME280;30146;52.268;20.944;2023-04-04T12:00:58;101025.21;;;6.98;36.26
44441;BME280;30146;52.268;20.944;2023-04-04T12:03:29;101027.87;;;6.94;36.01
44441;BME280;30146;52.268;20.944;2023-04-04T12:06:01;101026.21;;;6.86;36.17
44441;BME280;30146;52.268;20.944;2023-04-04T12:08:33;101028.44;;;6.77;36.32
44441;BME280;30146;52.268;20.944;2023-04-04T12:11:07;101021.83;;;6.67;36.51
44441;BME280;30146;52.268;20.944;2023-04-04T12:13:43;101023.35;;;6.57;36.63
44441;BME280;30146;52.268;20.944;2023-04-04T12:16:13;101025.66;;;6.45;36.61
44441;BME280;30146;52.268;20.944;2023-04-04T12:18:44;101023.11;;;6.36;36.94
44441;BME280;30146;52.268;20.944;2023-04-04T12:21:16;101020.55;;;6.25;37.09
44441;BME280;30146;52.268;20.944;2023-04-04T12:23:48;101020.19;;;6.15;37.30
44441;BME280;30146;52.268;20.944;2023-04-04T12:26:19;101022.08;;;6.08;37.37
44441;BME280;30146;52.268;20.944;2023-04-04T12:28:51;101025.17;;;6.02;37.67
44441;BME280;30146;52.268;20.944;2023-04-04T12:31:50;101026.33;;;6.00;37.97
44441;BME280;30146;52.268;20.944;2023-04-04T12:34:24;101024.81;;;6.01;38.08
44441;BME280;30146;52.268;20.944;2023-04-04T12:37:03;101021.17;;;6.05;38.39
44441;BME280;30146;52.268;20.944;2023-04-04T12:39:33;101016.13;;;6.08;38.26
44441;BME280;30146;52.268;20.944;2023-04-04T12:42:05;101013.78;;;6.09;38.43
44441;BME280;30146;52.268;20.944;2023-04-04T12:44:37;101013.35;;;6.13;38.50
44441;BME280;30146;52.268;20.944;2023-04-04T12:47:11;101013.37;;;6.14;38.36
44441;BME280;30146;52.268;20.944;2023-04-04T12:49:46;101010.84;;;6.15;38.25
44441;BME280;30146;52.268;20.944;2023-04-04T12:52:19;101010.92;;;6.19;38.24
44441;BME280;30146;52.268;20.944;2023-04-04T12:54:51;101011.17;;;6.24;38.29
44441;BME280;30146;52.268;20.944;2023-04-04T12:57:37;101005.31;;;6.28;38.10
44441;BME280;30146;52.268;20.944;2023-04-04T13:00:10;101004.20;;;6.31;38.14
44441;BME280;30146;52.268;20.944;2023-04-04T13:02:48;101002.20;;;6.34;38.03
44441;BME280;30146;52.268;20.944;2023-04-04T13:05:20;101000.05;;;6.37;38.04
44441;BME280;30146;52.268;20.944;2023-04-04T13:08:06;100997.88;;;6.39;38.05
44441;BME280;30146;52.268;20.944;2023-04-04T13:11:00;100999.38;;;6.38;38.08
44441;BME280;30146;52.268;20.944;2023-04-04T13:13:37;100998.67;;;6.36;38.18
44441;BME280;30146;52.268;20.944;2023-04-04T13:16:10;101000.80;;;6.32;38.04
44441;BME280;30146;52.268;20.944;2023-04-04T13:18:42;100996.62;;;6.26;38.12
44441;BME280;30146;52.268;20.944;2023-04-04T13:21:13;100997.91;;;6.22;38.05
44441;BME280;30146;52.268;20.944;2023-04-04T13:23:44;101000.42;;;6.20;38.44
44441;BME280;30146;52.268;20.944;2023-04-04T13:26:16;100999.39;;;6.20;38.36
44441;BME280;30146;52.268;20.944;2023-04-04T13:28:47;101001.80;;;6.23;38.61
44441;BME280;30146;52.268;20.944;2023-04-04T13:31:18;100999.35;;;6.26;38.54
44441;BME280;30146;52.268;20.944;2023-04-04T13:33:50;100997.20;;;6.30;38.58
44441;BME280;30146;52.268;20.944;2023-04-04T13:36:21;100998.27;;;6.33;38.46